Time;durP1;ratioP1;P1;durP2;ratioP2;P2;SDS_P1;SDS_P2;PMS_P1;PMS_P2;Temp;Humidity;BMP_temperature;BMP_pressure;BME280_temperature;BME280_humidity;BME280_pressure;Samples;Min_cycle;Max_cycle;Signal;HPM_P1;HPM_P2
2021/01/09 00:00:11;;;;;;;13.73;9.07;;;0.10;99.90;;;;;;5115035;28;20493;-90
2021/01/09 00:02:38;;;;;;;12.97;9.97;;;0.00;99.90;;;;;;5110167;28;20460;-89
2021/01/09 00:05:05;;;;;;;12.67;8.27;;;0.10;99.90;;;;;;5114180;28;20451;-89
2021/01/09 00:07:32;;;;;;;13.00;8.97;;;0.20;99.90;;;;;;5115215;28;20950;-90
2021/01/09 00:09:59;;;;;;;9.57;7.63;;;0.10;99.90;;;;;;5114645;28;20450;-89
2021/01/09 00:12:25;;;;;;;13.57;8.63;;;0.10;99.90;;;;;;5114823;28;20545;-88
2021/01/09 00:14:52;;;;;;;11.60;8.00;;;0.10;99.90;;;;;;5114852;28;20811;-90
2021/01/09 00:17:19;;;;;;;11.10;8.67;;;0.00;99.90;;;;;;5114734;28;20448;-88
2021/01/09 00:19:45;;;;;;;12.00;8.10;;;0.00;99.90;;;;;;5114277;28;20508;-88
2021/01/09 00:22:12;;;;;;;12.50;7.80;;;0.00;99.90;;;;;;5114867;28;20937;-90
2021/01/09 00:24:39;;;;;;;10.13;8.13;;;0.00;99.90;;;;;;5115170;28;20507;-89
2021/01/09 00:27:09;;;;;;;11.37;7.80;;;0.10;99.90;;;;;;5114744;28;20443;-89
2021/01/09 00:29:35;;;;;;;11.43;8.60;;;0.10;99.90;;;;;;5114274;28;20492;-89
2021/01/09 00:32:01;;;;;;;12.17;8.87;;;0.20;99.90;;;;;;5117860;28;20446;-90
2021/01/09 00:34:28;;;;;;;12.93;8.57;;;0.20;99.90;;;;;;5113723;28;20899;-91
2021/01/09 00:36:55;;;;;;;16.70;9.17;;;;;;;;;;5119000;28;20451;-90
2021/01/09 00:39:22;;;;;;;14.20;8.27;;;;;;;;;;5119214;28;20479;-91
2021/01/09 00:41:48;;;;;;;13.63;8.93;;;;;;;;;;5118928;28;20937;-89
2021/01/09 00:44:15;;;;;;;12.20;9.00;;;;;;;;;;5119539;28;20486;-90
2021/01/09 00:46:41;;;;;;;12.47;8.33;;;0.30;99.90;;;;;;5118941;28;20974;-91
2021/01/09 00:49:08;;;;;;;13.17;7.93;;;;;;;;;;5118611;28;20470;-89
2021/01/09 00:51:35;;;;;;;11.13;8.00;;;0.20;99.90;;;;;;5126543;28;20452;-91
2021/01/09 00:54:02;;;;;;;13.37;8.63;;;0.20;99.90;;;;;;5122213;28;20442;-90
2021/01/09 00:56:28;;;;;;;14.27;8.87;;;;;;;;;;5119035;28;20480;-92
2021/01/09 00:58:54;;;;;;;13.07;8.93;;;0.10;99.90;;;;;;5118861;28;20468;-90
2021/01/09 01:01:21;;;;;;;12.53;8.50;;;0.10;99.90;;;;;;5112439;28;20459;-89
2021/01/09 01:03:47;;;;;;;13.70;9.93;;;0.20;99.90;;;;;;5118546;28;20529;-89
2021/01/09 01:06:13;;;;;;;14.73;8.80;;;0.20;99.90;;;;;;5117945;28;20864;-91
2021/01/09 01:08:41;;;;;;;11.13;8.37;;;0.20;99.90;;;;;;5118515;28;20505;-89
2021/01/09 01:11:09;;;;;;;13.50;8.40;;;0.30;99.90;;;;;;5110994;28;20962;-89
2021/01/09 01:13:36;;;;;;;12.00;9.20;;;;;;;;;;5118479;28;20526;-90
2021/01/09 01:16:02;;;;;;;10.43;7.60;;;0.20;99.90;;;;;;5118062;28;20451;-89
2021/01/09 01:18:29;;;;;;;13.83;8.47;;;0.30;99.90;;;;;;5113919;28;20444;-91
2021/01/09 01:20:55;;;;;;;14.10;9.07;;;0.30;99.90;;;;;;5117769;28;20546;-89
2021/01/09 01:23:21;;;;;;;13.90;9.07;;;0.30;99.90;;;;;;5118223;28;20462;-90
2021/01/09 01:25:49;;;;;;;13.80;9.37;;;0.30;99.90;;;;;;5118472;28;20554;-90
2021/01/09 01:28:15;;;;;;;14.07;9.90;;;0.30;99.90;;;;;;5118389;28;20450;-89
2021/01/09 01:30:41;;;;;;;11.97;8.80;;;0.20;99.90;;;;;;5118625;28;20454;-91
2021/01/09 01:33:08;;;;;;;12.50;8.87;;;;;;;;;;5118376;28;20458;-90
2021/01/09 01:35:34;;;;;;;13.00;9.00;;;0.20;99.90;;;;;;5116987;28;20450;-87
2021/01/09 01:38:01;;;;;;;12.40;9.20;;;;;;;;;;5118289;28;20941;-89
2021/01/09 01:40:27;;;;;;;12.43;8.73;;;0.30;99.90;;;;;;5117845;28;20490;-89
2021/01/09 01:42:54;;;;;;;15.23;9.43;;;0.30;99.90;;;;;;5116498;28;20435;-91
2021/01/09 01:45:21;;;;;;;13.83;9.90;;;;;;;;;;5117804;28;20482;-93
2021/01/09 01:47:47;;;;;;;13.00;8.97;;;;;;;;;;5117654;28;20462;-89
2021/01/09 01:50:14;;;;;;;12.83;9.53;;;0.30;99.90;;;;;;5116835;28;20453;-90
2021/01/09 01:52:41;;;;;;;13.90;9.90;;;0.30;99.90;;;;;;5117561;28;20453;-90
2021/01/09 01:55:09;;;;;;;13.37;9.20;;;0.30;99.90;;;;;;5117368;28;20477;-90
2021/01/09 01:57:36;;;;;;;14.00;8.90;;;0.40;99.90;;;;;;5100015;28;20987;-90
2021/01/09 02:00:05;;;;;;;15.93;10.23;;;0.40;99.90;;;;;;5117793;28;20504;-92
2021/01/09 02:02:32;;;;;;;12.87;8.80;;;0.40;99.90;;;;;;5117513;28;20445;-90
2021/01/09 02:05:04;;;;;;;12.17;9.13;;;0.30;99.90;;;;;;5111465;28;20440;-91
2021/01/09 02:07:36;;;;;;;15.20;10.27;;;0.30;99.90;;;;;;5118316;28;20452;-91
2021/01/09 02:10:05;;;;;;;15.33;9.67;;;0.50;99.90;;;;;;5117541;28;20455;-91
2021/01/09 02:12:42;;;;;;;16.63;10.43;;;0.40;99.90;;;;;;5113387;28;20444;-90
2021/01/09 02:15:11;;;;;;;15.37;10.77;;;0.40;99.90;;;;;;5117758;28;20453;-91
2021/01/09 02:17:39;;;;;;;15.63;10.50;;;;;;;;;;5117373;28;20501;-90
2021/01/09 02:20:08;;;;;;;13.57;10.43;;;0.60;99.90;;;;;;5123929;28;20490;-92
2021/01/09 02:22:42;;;;;;;13.47;10.40;;;1.10;99.90;;;;;;5116462;28;20439;-89
2021/01/09 02:25:09;;;;;;;16.63;9.93;;;0.60;99.90;;;;;;5114390;28;20437;-91
2021/01/09 02:27:36;;;;;;;14.17;9.70;;;0.60;99.90;;;;;;5114669;28;20462;-90
2021/01/09 02:30:07;;;;;;;14.07;9.37;;;0.50;99.90;;;;;;5117850;28;20447;-91
2021/01/09 02:32:41;;;;;;;16.13;10.73;;;2.30;99.90;;;;;;5114401;28;20439;-91
2021/01/09 02:35:10;;;;;;;14.47;10.00;;;0.50;99.90;;;;;;5116436;28;20430;-90
2021/01/09 02:37:36;;;;;;;14.80;9.40;;;0.60;99.90;;;;;;5118929;28;20440;-92
2021/01/09 02:40:06;;;;;;;16.00;10.23;;;0.50;99.90;;;;;;5117484;28;20491;-91
2021/01/09 02:42:32;;;;;;;14.73;9.53;;;0.60;99.90;;;;;;5117727;28;20966;-88
2021/01/09 02:45:00;;;;;;;17.50;9.80;;;0.60;99.90;;;;;;5118181;28;20461;-90
2021/01/09 02:47:26;;;;;;;16.53;11.57;;;0.50;99.90;;;;;;5112969;28;20441;-88
2021/01/09 02:49:52;;;;;;;13.97;10.00;;;0.50;99.90;;;;;;5116092;28;20442;-90
2021/01/09 02:52:18;;;;;;;16.60;9.90;;;0.40;99.90;;;;;;5117737;28;20454;-91
2021/01/09 02:54:45;;;;;;;16.40;10.37;;;0.40;99.90;;;;;;5116507;28;20821;-91
2021/01/09 02:57:12;;;;;;;15.37;10.20;;;0.30;99.90;;;;;;5116838;28;20448;-91
2021/01/09 02:59:38;;;;;;;14.00;10.33;;;0.40;99.90;;;;;;5107931;28;20485;-90
2021/01/09 03:02:05;;;;;;;16.77;11.80;;;;;;;;;;5116701;28;20442;-90
2021/01/09 03:04:31;;;;;;;15.20;11.10;;;0.50;99.90;;;;;;5115703;28;20455;-90
2021/01/09 03:06:57;;;;;;;19.10;10.83;;;0.40;99.90;;;;;;5117479;28;20474;-89
2021/01/09 03:09:24;;;;;;;17.87;11.20;;;0.40;99.90;;;;;;5117933;28;20447;-90
2021/01/09 03:11:50;;;;;;;14.17;9.60;;;0.50;99.90;;;;;;5117488;28;20454;-90
2021/01/09 03:14:17;;;;;;;14.60;11.00;;;0.50;99.90;;;;;;5117392;28;20497;-89
2021/01/09 03:16:43;;;;;;;16.40;11.33;;;0.50;99.90;;;;;;5115546;28;20445;-90
2021/01/09 03:19:10;;;;;;;13.90;10.47;;;;;;;;;;5109945;28;20483;-90
2021/01/09 03:21:38;;;;;;;16.70;11.33;;;0.60;99.90;;;;;;5115292;28;20454;-90
2021/01/09 03:24:04;;;;;;;18.03;11.80;;;0.60;99.90;;;;;;5115357;28;20928;-92
2021/01/09 03:26:31;;;;;;;15.83;10.40;;;0.70;99.90;;;;;;5115646;28;20442;-90
2021/01/09 03:28:58;;;;;;;16.90;12.00;;;0.80;99.90;;;;;;5115320;28;20920;-91
2021/01/09 03:31:26;;;;;;;17.07;12.33;;;0.80;99.90;;;;;;5115339;28;20463;-91
2021/01/09 03:33:53;;;;;;;16.30;11.47;;;0.70;99.90;;;;;;5115557;28;20494;-91
2021/01/09 03:36:19;;;;;;;23.90;12.57;;;0.70;99.90;;;;;;5115518;28;20861;-90
2021/01/09 03:38:46;;;;;;;16.87;12.03;;;0.70;99.90;;;;;;5115354;28;20447;-90
2021/01/09 03:41:12;;;;;;;20.20;12.47;;;;;;;;;;5115662;28;20919;-92
2021/01/09 03:43:39;;;;;;;25.07;11.53;;;;;;;;;;5115524;28;20463;-90
2021/01/09 03:46:05;;;;;;;19.10;12.13;;;;;;;;;;5116795;28;20457;-90
2021/01/09 03:48:32;;;;;;;17.20;11.67;;;0.50;99.90;;;;;;5122485;28;20937;-89
2021/01/09 03:50:59;;;;;;;18.67;12.37;;;;;;;;;;5115825;28;20454;-89
2021/01/09 03:53:26;;;;;;;17.40;11.23;;;;;;;;;;5115727;28;20451;-91
2021/01/09 03:55:52;;;;;;;18.80;13.13;;;0.80;99.90;;;;;;5115086;28;20480;-89
2021/01/09 03:58:19;;;;;;;23.57;13.90;;;;;;;;;;5112182;28;20454;-88
2021/01/09 04:00:45;;;;;;;20.03;14.17;;;0.60;99.90;;;;;;5114705;28;20495;-89
2021/01/09 04:03:12;;;;;;;20.67;13.90;;;;;;;;;;5115237;28;20436;-88
2021/01/09 04:05:39;;;;;;;22.37;12.93;;;0.60;99.90;;;;;;5113366;28;20464;-88
2021/01/09 04:08:06;;;;;;;22.07;14.00;;;0.60;99.90;;;;;;5114551;28;20456;-89
2021/01/09 04:10:32;;;;;;;20.37;13.27;;;0.50;99.90;;;;;;5115152;28;20843;-88
2021/01/09 04:12:59;;;;;;;17.80;12.17;;;0.50;99.90;;;;;;5115424;28;20794;-89
2021/01/09 04:15:25;;;;;;;20.93;14.23;;;0.60;99.90;;;;;;5110055;28;20783;-89
2021/01/09 04:17:51;;;;;;;19.97;14.00;;;0.50;99.90;;;;;;5114394;28;20938;-89
2021/01/09 04:20:18;;;;;;;18.97;12.87;;;0.50;99.90;;;;;;5113236;28;20479;-91
2021/01/09 04:22:45;;;;;;;20.37;13.67;;;0.50;99.90;;;;;;5114411;28;20451;-90
2021/01/09 04:25:12;;;;;;;19.33;13.23;;;0.60;99.90;;;;;;5114728;28;20540;-93
2021/01/09 04:27:39;;;;;;;19.00;13.80;;;;;;;;;;5114828;28;20456;-88
2021/01/09 04:30:06;;;;;;;18.83;12.80;;;0.50;99.90;;;;;;5114411;28;20439;-89
2021/01/09 04:32:33;;;;;;;19.33;13.07;;;0.50;99.90;;;;;;5114645;28;20447;-90
2021/01/09 04:34:59;;;;;;;17.90;12.17;;;0.60;99.90;;;;;;5113449;28;20444;-88
2021/01/09 04:37:25;;;;;;;16.70;11.63;;;0.50;99.90;;;;;;5114388;28;20444;-89
2021/01/09 04:39:52;;;;;;;16.33;12.00;;;0.50;99.90;;;;;;5114512;28;20491;-89
2021/01/09 04:42:19;;;;;;;20.13;12.67;;;0.50;99.90;;;;;;5114578;28;20427;-89
2021/01/09 04:44:45;;;;;;;20.27;13.00;;;0.50;99.90;;;;;;5114159;28;20526;-89
2021/01/09 04:47:12;;;;;;;19.77;12.70;;;0.50;99.90;;;;;;5109581;28;20433;-89
2021/01/09 04:49:39;;;;;;;18.73;13.17;;;0.50;99.90;;;;;;5110421;28;20446;-90
2021/01/09 04:52:07;;;;;;;25.27;14.83;;;0.50;99.90;;;;;;5115531;28;20451;-90
2021/01/09 04:54:35;;;;;;;18.70;13.13;;;0.50;99.90;;;;;;5111254;28;20473;-90
2021/01/09 04:57:02;;;;;;;19.73;13.50;;;0.50;99.90;;;;;;5108326;28;20460;-90
2021/01/09 04:59:29;;;;;;;24.93;15.83;;;0.50;99.90;;;;;;5104962;28;20479;-90
2021/01/09 05:01:57;;;;;;;20.47;14.77;;;0.50;99.90;;;;;;5114045;28;20471;-90
2021/01/09 05:04:23;;;;;;;23.17;15.30;;;0.60;99.90;;;;;;5108865;28;20444;-89
2021/01/09 05:06:49;;;;;;;23.50;15.53;;;0.60;99.90;;;;;;5109225;28;20768;-90
2021/01/09 05:09:17;;;;;;;21.33;14.13;;;0.60;99.90;;;;;;5114097;28;20454;-90
2021/01/09 05:11:44;;;;;;;18.87;12.80;;;0.60;99.90;;;;;;5114118;28;20444;-91
2021/01/09 05:14:11;;;;;;;20.00;13.27;;;0.60;99.90;;;;;;5118606;28;20452;-90
2021/01/09 05:16:39;;;;;;;19.20;13.10;;;0.60;99.90;;;;;;5123493;28;20459;-89
2021/01/09 05:19:06;;;;;;;20.97;14.60;;;0.60;99.90;;;;;;5117613;28;20447;-88
2021/01/09 05:21:35;;;;;;;23.53;14.30;;;0.80;99.90;;;;;;5117745;28;20444;-91
2021/01/09 05:24:03;;;;;;;26.57;14.80;;;0.80;99.90;;;;;;5117803;28;20458;-88
2021/01/09 05:26:30;;;;;;;23.83;15.83;;;0.70;99.90;;;;;;5117677;28;20451;-90
2021/01/09 05:28:58;;;;;;;26.13;15.53;;;0.70;99.90;;;;;;5117758;28;20880;-89
2021/01/09 05:31:26;;;;;;;22.87;15.03;;;0.70;99.90;;;;;;5118094;28;20435;-92
2021/01/09 05:33:53;;;;;;;25.70;14.83;;;0.70;99.90;;;;;;5117419;28;21014;-87
2021/01/09 05:36:20;;;;;;;19.47;13.47;;;0.70;99.90;;;;;;5114173;28;20804;-90
2021/01/09 05:38:48;;;;;;;22.23;13.90;;;0.70;99.90;;;;;;5117853;28;20815;-89
2021/01/09 05:41:16;;;;;;;19.07;13.37;;;0.70;99.90;;;;;;5117432;28;20494;-90
2021/01/09 05:43:46;;;;;;;21.10;13.80;;;0.70;99.90;;;;;;5117585;28;20467;-90
2021/01/09 05:46:13;;;;;;;22.90;15.80;;;0.70;99.90;;;;;;5117328;28;20454;-90
2021/01/09 05:48:42;;;;;;;24.13;14.57;;;0.60;99.90;;;;;;5111208;28;20434;-90
2021/01/09 05:51:12;;;;;;;21.10;14.03;;;0.70;99.90;;;;;;5116320;28;20457;-89
2021/01/09 05:53:41;;;;;;;22.47;14.80;;;0.70;99.90;;;;;;5113591;28;20503;-88
2021/01/09 05:56:08;;;;;;;22.73;15.47;;;0.70;99.90;;;;;;5116537;28;20480;-90
2021/01/09 05:58:35;;;;;;;25.80;15.67;;;0.70;99.90;;;;;;5111061;28;20445;-89
2021/01/09 06:01:06;;;;;;;20.97;14.17;;;0.70;99.90;;;;;;5116655;28;20499;-90
2021/01/09 06:03:38;;;;;;;26.77;16.10;;;0.70;99.90;;;;;;5116635;28;20448;-91
2021/01/09 06:06:19;;;;;;;27.60;16.47;;;0.70;99.90;;;;;;5111461;28;20451;-91
2021/01/09 06:08:49;;;;;;;23.90;15.90;;;0.70;99.90;;;;;;5116909;28;20448;-91
2021/01/09 06:11:22;;;;;;;25.00;15.23;;;0.70;99.90;;;;;;5113689;28;20445;-89
2021/01/09 06:13:49;;;;;;;25.37;15.83;;;0.70;99.90;;;;;;5113541;28;20447;-89
2021/01/09 06:16:15;;;;;;;27.90;15.97;;;0.70;99.90;;;;;;5113812;28;20431;-91
2021/01/09 06:18:42;;;;;;;25.27;15.77;;;0.90;99.90;;;;;;5116824;28;20440;-90
2021/01/09 06:21:11;;;;;;;25.43;15.50;;;0.70;99.90;;;;;;5112506;28;20482;-90
2021/01/09 06:23:38;;;;;;;27.00;15.47;;;0.60;99.90;;;;;;5116534;28;20451;-90
2021/01/09 06:26:06;;;;;;;21.13;13.60;;;0.60;99.90;;;;;;5116450;28;20447;-91
2021/01/09 06:28:37;;;;;;;24.90;15.60;;;0.60;99.90;;;;;;5115865;28;20455;-90
2021/01/09 06:31:07;;;;;;;21.43;14.73;;;0.60;99.90;;;;;;5116431;28;20451;-90
2021/01/09 06:33:39;;;;;;;28.70;13.90;;;0.60;99.90;;;;;;5113586;28;20475;-91
2021/01/09 06:36:13;;;;;;;25.20;15.17;;;0.60;99.90;;;;;;5110392;28;20444;-93
2021/01/09 06:38:41;;;;;;;27.47;16.13;;;0.60;99.90;;;;;;5116394;28;20445;-90
2021/01/09 06:41:12;;;;;;;28.00;15.63;;;0.60;99.90;;;;;;5120445;28;20503;-88
2021/01/09 06:43:39;;;;;;;25.67;16.17;;;0.60;99.90;;;;;;5122662;28;20468;-88
2021/01/09 06:46:07;;;;;;;26.80;14.57;;;0.60;99.90;;;;;;5113033;28;20439;-90
2021/01/09 06:48:35;;;;;;;23.50;14.27;;;0.60;99.90;;;;;;5115913;28;20448;-92
2021/01/09 06:51:02;;;;;;;26.10;16.07;;;0.70;99.90;;;;;;5114775;28;20448;-93
2021/01/09 06:53:29;;;;;;;26.30;15.63;;;0.70;99.90;;;;;;5115872;28;20847;-93
2021/01/09 06:55:55;;;;;;;30.40;16.00;;;0.60;99.90;;;;;;5115574;28;20498;-91
2021/01/09 06:58:27;;;;;;;23.73;15.60;;;0.70;99.90;;;;;;5115881;28;20517;-88
2021/01/09 07:00:53;;;;;;;25.27;13.63;;;0.60;99.90;;;;;;5110630;28;21013;-89
2021/01/09 07:03:22;;;;;;;28.30;15.17;;;0.70;99.90;;;;;;5115990;28;20455;-88
2021/01/09 07:05:49;;;;;;;25.20;15.53;;;0.60;99.90;;;;;;5118705;28;20472;-88
2021/01/09 07:08:20;;;;;;;25.00;15.40;;;0.60;99.90;;;;;;5125072;28;20446;-89
2021/01/09 07:10:51;;;;;;;31.27;17.80;;;0.60;99.90;;;;;;5113193;28;20435;-89
2021/01/09 07:13:18;;;;;;;27.47;16.90;;;0.60;99.90;;;;;;5115762;28;20450;-91
2021/01/09 07:15:44;;;;;;;28.57;18.07;;;0.70;99.90;;;;;;5115621;28;20946;-92
2021/01/09 07:18:12;;;;;;;28.90;16.80;;;0.70;99.90;;;;;;5116229;28;20933;-93
2021/01/09 07:20:41;;;;;;;29.67;17.07;;;0.60;99.90;;;;;;5111542;28;20487;-94
2021/01/09 07:23:09;;;;;;;31.53;16.80;;;0.70;99.90;;;;;;5110790;28;20448;-91
2021/01/09 07:25:36;;;;;;;29.10;16.83;;;0.60;99.90;;;;;;5116830;28;20840;-93
2021/01/09 07:28:08;;;;;;;26.50;16.73;;;0.60;99.90;;;;;;5116518;28;20901;-92
2021/01/09 07:30:35;;;;;;;28.33;17.33;;;0.70;99.90;;;;;;5116051;28;20476;-92
2021/01/09 07:33:01;;;;;;;28.53;15.00;;;;;;;;;;5111685;28;20802;-91
2021/01/09 07:35:30;;;;;;;29.97;17.53;;;0.70;99.90;;;;;;5115790;28;20442;-87
2021/01/09 07:37:59;;;;;;;29.50;16.97;;;0.70;99.90;;;;;;5122009;28;20439;-89
2021/01/09 07:40:29;;;;;;;25.47;15.17;;;0.70;99.90;;;;;;5117735;28;20481;-91
2021/01/09 07:42:55;;;;;;;23.77;15.30;;;0.70;99.90;;;;;;5106524;28;20468;-87
2021/01/09 07:45:30;;;;;;;31.33;16.47;;;0.70;99.90;;;;;;5090794;28;20516;-87
2021/01/09 07:47:57;;;;;;;32.63;16.90;;;0.60;99.90;;;;;;5090708;28;20462;-90
2021/01/09 07:50:24;;;;;;;33.93;18.43;;;0.60;99.90;;;;;;5093034;28;20458;-86
2021/01/09 07:53:04;;;;;;;31.30;17.90;;;0.70;99.90;;;;;;5094018;28;20455;-91
2021/01/09 07:55:44;;;;;;;31.90;16.90;;;0.70;99.90;;;;;;5088504;28;20507;-90
2021/01/09 07:58:11;;;;;;;30.73;18.20;;;0.70;99.90;;;;;;5094222;28;20448;-90
2021/01/09 08:00:42;;;;;;;32.03;18.17;;;0.70;99.90;;;;;;5094381;28;20484;-86
2021/01/09 08:03:10;;;;;;;29.83;17.60;;;0.70;99.90;;;;;;5093971;28;20437;-89
2021/01/09 08:05:37;;;;;;;31.00;17.53;;;0.70;99.90;;;;;;5092933;28;20461;-87
2021/01/09 08:08:05;;;;;;;28.77;16.37;;;0.70;99.90;;;;;;5097737;28;20451;-87
2021/01/09 08:10:32;;;;;;;28.70;16.80;;;0.70;99.90;;;;;;5097687;28;20462;-87
2021/01/09 08:13:00;;;;;;;27.37;16.07;;;0.70;99.90;;;;;;5093730;28;20448;-88
2021/01/09 08:15:28;;;;;;;28.40;16.50;;;0.70;99.90;;;;;;5094176;28;20425;-88
2021/01/09 08:17:58;;;;;;;28.17;16.60;;;0.70;99.90;;;;;;5087828;28;20433;-90
2021/01/09 08:20:25;;;;;;;31.17;18.30;;;0.80;99.90;;;;;;5092463;28;21004;-88
2021/01/09 08:22:57;;;;;;;30.80;18.00;;;0.70;99.90;;;;;;5094164;28;20499;-88
2021/01/09 08:25:26;;;;;;;25.80;15.50;;;0.80;99.90;;;;;;5094073;28;20449;-89
2021/01/09 08:27:54;;;;;;;28.47;16.73;;;0.70;99.90;;;;;;5093792;28;20455;-86
2021/01/09 08:30:23;;;;;;;28.50;15.43;;;0.70;99.90;;;;;;5092063;28;20457;-92
2021/01/09 08:32:49;;;;;;;30.10;15.43;;;0.70;99.90;;;;;;5094393;28;20438;-88
2021/01/09 08:35:17;;;;;;;28.90;16.93;;;0.90;99.90;;;;;;5093577;28;20499;-93
2021/01/09 08:37:44;;;;;;;28.03;15.97;;;0.90;99.90;;;;;;5093865;28;20448;-93
2021/01/09 08:40:19;;;;;;;28.07;16.50;;;0.80;99.90;;;;;;5094993;28;20494;-88
2021/01/09 08:42:56;;;;;;;27.70;16.60;;;0.80;99.90;;;;;;5090678;28;20480;-92
2021/01/09 08:45:43;;;;;;;28.20;16.40;;;0.80;99.90;;;;;;5093411;28;20467;-87
2021/01/09 08:48:11;;;;;;;26.80;16.40;;;0.90;99.90;;;;;;5093771;28;20997;-93
2021/01/09 08:50:57;;;;;;;23.97;16.10;;;0.70;99.90;;;;;;5091139;28;20478;-91
2021/01/09 08:53:25;;;;;;;25.93;17.07;;;0.80;99.90;;;;;;5084658;28;20456;-88
2021/01/09 08:55:55;;;;;;;28.70;17.43;;;0.90;99.90;;;;;;5086474;28;20471;-86
2021/01/09 08:58:22;;;;;;;28.07;18.03;;;0.90;99.90;;;;;;5099694;28;20451;-86
2021/01/09 09:00:48;;;;;;;27.53;16.20;;;0.80;99.90;;;;;;5098027;28;20492;-90
2021/01/09 09:03:17;;;;;;;26.10;16.87;;;0.90;99.90;;;;;;5099395;28;20441;-89
2021/01/09 09:05:47;;;;;;;24.33;16.20;;;1.00;99.90;;;;;;5097404;28;20559;-90
2021/01/09 09:08:16;;;;;;;24.43;14.33;;;1.00;99.90;;;;;;5099215;28;20935;-93
2021/01/09 09:10:47;;;;;;;24.50;16.53;;;1.10;99.90;;;;;;5095793;28;20857;-92
2021/01/09 09:13:21;;;;;;;26.30;16.83;;;1.00;99.90;;;;;;5100204;28;20473;-93
2021/01/09 09:15:49;;;;;;;25.13;15.70;;;1.10;99.90;;;;;;5083379;28;20441;-88
2021/01/09 09:18:16;;;;;;;26.47;16.57;;;1.20;99.90;;;;;;5100579;28;20449;-89
2021/01/09 09:20:46;;;;;;;26.00;16.50;;;1.20;99.90;;;;;;5105372;28;20483;-90
2021/01/09 09:23:22;;;;;;;28.53;17.60;;;1.20;99.90;;;;;;5113501;28;20502;-92
2021/01/09 09:26:05;;;;;;;23.30;14.83;;;1.30;99.90;;;;;;5098306;28;20447;-92
2021/01/09 09:28:31;;;;;;;25.50;14.83;;;1.30;99.90;;;;;;5098714;28;20451;-91
2021/01/09 09:30:57;;;;;;;21.70;14.50;;;1.40;99.90;;;;;;5101622;28;20840;-91
2021/01/09 09:33:24;;;;;;;25.13;15.63;;;;;;;;;;5096735;28;20457;-91
2021/01/09 09:35:51;;;;;;;23.33;15.20;;;1.60;99.90;;;;;;5103349;28;20932;-87
2021/01/09 09:38:27;;;;;;;25.63;15.77;;;1.40;99.90;;;;;;5106164;28;20453;-90
2021/01/09 09:41:05;;;;;;;23.97;15.27;;;1.50;99.90;;;;;;5100719;28;20857;-92
2021/01/09 09:43:31;;;;;;;24.87;16.50;;;1.50;99.90;;;;;;5099924;28;20522;-88
2021/01/09 09:45:59;;;;;;;22.93;13.93;;;1.60;99.90;;;;;;5098814;28;20807;-90
2021/01/09 09:48:30;;;;;;;22.03;15.50;;;1.60;99.90;;;;;;5098919;28;20952;-92
2021/01/09 09:51:04;;;;;;;25.73;14.90;;;1.50;99.90;;;;;;5097105;28;20441;-92
2021/01/09 09:53:33;;;;;;;23.80;15.27;;;1.50;99.90;;;;;;5099252;28;20443;-93
2021/01/09 09:56:13;;;;;;;20.33;13.23;;;1.60;99.90;;;;;;5094584;28;20839;-88
2021/01/09 09:58:40;;;;;;;23.00;13.10;;;1.70;99.90;;;;;;5091865;28;20448;-88
2021/01/09 10:01:17;;;;;;;21.30;14.03;;;1.60;99.90;;;;;;5097395;28;20492;-91
2021/01/09 10:03:43;;;;;;;21.03;14.07;;;1.80;99.90;;;;;;5095863;28;20570;-94
2021/01/09 10:06:10;;;;;;;25.77;15.57;;;1.80;99.90;;;;;;5090639;28;20456;-93
2021/01/09 10:08:37;;;;;;;22.47;15.07;;;1.70;99.90;;;;;;5099072;28;20928;-93
2021/01/09 10:11:04;;;;;;;24.13;15.50;;;1.70;99.90;;;;;;5098032;28;20972;-94
2021/01/09 10:13:33;;;;;;;22.20;13.60;;;1.70;99.90;;;;;;5047150;28;20439;-92
2021/01/09 10:15:59;;;;;;;18.40;12.87;;;1.90;99.90;;;;;;5094220;28;20461;-93
2021/01/09 10:18:26;;;;;;;19.10;12.33;;;1.70;99.90;;;;;;5098313;28;20476;-93
2021/01/09 10:20:56;;;;;;;20.63;13.10;;;1.80;99.90;;;;;;5096427;28;20512;-91
2021/01/09 10:23:22;;;;;;;21.30;13.23;;;1.80;99.90;;;;;;5098783;28;20476;-93
2021/01/09 10:25:49;;;;;;;20.67;13.40;;;1.60;99.90;;;;;;5097731;28;20862;-94
2021/01/09 10:28:16;;;;;;;22.87;12.40;;;1.80;99.90;;;;;;5090896;28;20459;-89
2021/01/09 10:30:42;;;;;;;23.40;14.00;;;1.70;99.90;;;;;;5092280;28;20454;-94
2021/01/09 10:33:10;;;;;;;19.80;12.80;;;1.70;99.90;;;;;;5094437;28;20795;-93
2021/01/09 10:35:37;;;;;;;23.03;12.77;;;1.70;99.90;;;;;;5096082;28;20441;-90
2021/01/09 10:38:03;;;;;;;18.80;11.87;;;1.60;99.90;;;;;;5096595;28;20452;-91
2021/01/09 10:40:32;;;;;;;19.50;11.97;;;;;;;;;;5092170;28;20495;-92
2021/01/09 10:42:59;;;;;;;19.60;12.40;;;1.80;99.90;;;;;;5096653;28;20472;-89
2021/01/09 10:45:26;;;;;;;18.33;11.10;;;2.00;99.90;;;;;;5096491;28;20517;-90
2021/01/09 10:47:52;;;;;;;12.63;9.90;;;2.30;99.90;;;;;;5096923;28;20776;-92
2021/01/09 10:50:18;;;;;;;17.77;11.63;;;1.90;99.90;;;;;;5094610;28;20455;-88
2021/01/09 10:52:45;;;;;;;16.77;10.57;;;2.10;99.90;;;;;;5091359;28;20448;-91
2021/01/09 10:55:12;;;;;;;15.50;10.43;;;2.10;99.90;;;;;;5097380;28;20473;-88
2021/01/09 10:57:38;;;;;;;18.60;11.00;;;2.20;99.90;;;;;;5091466;28;20446;-91
2021/01/09 11:00:07;;;;;;;13.70;9.40;;;2.30;99.90;;;;;;5096566;28;20485;-90
2021/01/09 11:02:34;;;;;;;15.70;9.70;;;2.10;99.90;;;;;;5092069;28;20445;-91
2021/01/09 11:05:00;;;;;;;15.50;9.80;;;2.20;99.90;;;;;;5105626;28;20436;-91
2021/01/09 11:07:27;;;;;;;14.57;9.80;;;1.70;99.90;;;;;;5100653;28;20445;-87
2021/01/09 11:09:53;;;;;;;14.57;10.27;;;2.10;99.90;;;;;;5090237;28;20591;-94
2021/01/09 11:12:20;;;;;;;17.00;10.83;;;3.10;99.90;;;;;;5097475;28;20444;-94
2021/01/09 11:14:46;;;;;;;13.90;9.90;;;3.90;99.90;;;;;;5095768;28;20441;-90
2021/01/09 11:17:13;;;;;;;15.77;10.80;;;3.70;99.90;;;;;;5090485;28;20447;-91
2021/01/09 11:19:40;;;;;;;15.80;10.87;;;3.60;99.90;;;;;;5095367;28;20569;-92
2021/01/09 11:22:06;;;;;;;17.40;12.13;;;3.40;99.90;;;;;;5095952;28;20467;-90
2021/01/09 11:24:34;;;;;;;17.80;12.17;;;3.00;99.90;;;;;;5093497;28;20461;-96
2021/01/09 11:27:01;;;;;;;13.07;10.50;;;3.00;99.90;;;;;;5097985;28;20513;-91
2021/01/09 11:29:28;;;;;;;14.30;9.80;;;2.70;99.90;;;;;;5073862;28;20457;-90
2021/01/09 11:31:58;;;;;;;15.03;11.53;;;2.60;99.90;;;;;;5088537;28;20442;-89
2021/01/09 11:34:26;;;;;;;17.07;11.70;;;2.70;99.90;;;;;;5089952;28;20444;-94
2021/01/09 11:36:55;;;;;;;18.93;11.43;;;2.90;99.90;;;;;;5102160;28;20445;-91
2021/01/09 11:39:21;;;;;;;17.07;12.23;;;2.70;99.90;;;;;;5112184;28;20457;-94
2021/01/09 11:41:48;;;;;;;18.80;12.07;;;;;;;;;;5092788;28;20492;-93
2021/01/09 11:44:15;;;;;;;16.13;11.60;;;3.00;99.90;;;;;;5091681;28;20457;-94
2021/01/09 11:46:42;;;;;;;17.97;12.10;;;;;;;;;;5092870;28;20438;-92
2021/01/09 11:49:08;;;;;;;15.50;10.47;;;2.70;99.90;;;;;;5096269;28;20457;-93
2021/01/09 11:51:36;;;;;;;18.90;11.47;;;2.70;99.90;;;;;;5092597;28;20429;-90
2021/01/09 11:54:03;;;;;;;18.00;11.70;;;;;;;;;;5071514;28;20445;-91
2021/01/09 11:56:30;;;;;;;18.07;12.17;;;2.80;99.90;;;;;;5095130;28;20540;-94
2021/01/09 11:59:06;;;;;;;17.03;11.73;;;2.90;99.90;;;;;;5095277;28;20450;-92
2021/01/09 12:01:36;;;;;;;17.27;11.13;;;2.90;99.90;;;;;;5074902;28;20477;-93
2021/01/09 12:04:03;;;;;;;19.33;11.50;;;3.00;99.90;;;;;;5089311;28;20435;-92
2021/01/09 12:06:30;;;;;;;16.50;11.77;;;3.40;99.90;;;;;;5091980;28;20443;-93
2021/01/09 12:08:57;;;;;;;14.50;10.17;;;3.00;99.90;;;;;;5091527;28;20449;-93
2021/01/09 12:11:23;;;;;;;13.70;9.70;;;3.10;99.90;;;;;;5095535;28;20442;-93
2021/01/09 12:13:50;;;;;;;13.60;7.70;;;;;;;;;;5095638;28;20441;-93
2021/01/09 12:16:17;;;;;;;11.63;8.50;;;;;;;;;;5095613;28;20476;-92
2021/01/09 12:18:44;;;;;;;11.87;7.30;;;;;;;;;;5097751;28;20453;-92
2021/01/09 12:21:10;;;;;;;10.70;8.03;;;;;;;;;;5096985;28;20478;-90
2021/01/09 12:23:37;;;;;;;12.50;9.27;;;;;;;;;;5097459;28;20439;-91
2021/01/09 12:26:04;;;;;;;13.20;8.93;;;;;;;;;;5096379;28;20446;-88
2021/01/09 12:28:31;;;;;;;14.37;10.07;;;;;;;;;;5094264;28;20449;-90
2021/01/09 12:30:57;;;;;;;12.47;8.93;;;;;;;;;;5095453;28;20931;-87
2021/01/09 12:33:24;;;;;;;12.87;8.63;;;;;;;;;;5105305;28;20445;-89
2021/01/09 12:35:50;;;;;;;11.57;7.63;;;;;;;;;;5095034;28;20445;-90
2021/01/09 12:38:17;;;;;;;12.23;8.03;;;;;;;;;;5094186;28;20460;-91
2021/01/09 12:40:44;;;;;;;10.80;8.50;;;;;;;;;;5090745;28;20520;-89
2021/01/09 12:43:12;;;;;;;12.03;8.73;;;4.80;99.90;;;;;;5095135;28;20453;-91
2021/01/09 12:45:38;;;;;;;12.20;8.80;;;;;;;;;;5089968;28;20456;-90
2021/01/09 12:48:05;;;;;;;18.60;8.30;;;6.10;99.90;;;;;;5090935;28;20865;-89
2021/01/09 12:50:32;;;;;;;14.10;8.17;;;;;;;;;;5089516;28;20443;-90
2021/01/09 12:52:58;;;;;;;10.60;7.50;;;;;;;;;;5091038;28;20436;-92
2021/01/09 12:55:27;;;;;;;11.17;7.10;;;;;;;;;;5094424;28;20805;-90